ADDS METAR Data INFO
IDs: Format: Raw Decoded Include TAF

Data at: 0206 UTC 14 Dec 2017

KLCG 140155Z AUTO 35017G25KT 10SM OVC031 03/M04 A2994 RMK AO2 T00311040
KLCG 140135Z AUTO 34020G25KT 10SM OVC033 03/M04 A2993 RMK AO2 T00331040
KLCG 140115Z AUTO 34016G23KT 10SM OVC033 04/M04 A2993 RMK AO2 T00351041
KLCG 140055Z AUTO 34016G29KT 10SM OVC033 04/M04 A2993 RMK AO2 T00351036
KLCG 140035Z AUTO 35020G27KT 10SM OVC033 04/M03 A2992 RMK AO2 T00371031
KLCG 140015Z AUTO 35015G22KT 10SM OVC035 04/M03 A2992 RMK AO2 T00381030
KLCG 132355Z AUTO 35014G19KT 10SM OVC035 04/M03 A2991 RMK AO2 60003 T00401028 10079 20040
KLCG 132335Z AUTO 34014KT 10SM OVC036 04/M03 A2991 RMK AO2 T00421032
KLCG 132315Z AUTO 35020G25KT 10SM OVC036 04/M03 A2990 RMK AO2 T00441031
KLCG 132255Z AUTO 34020G26KT 10SM OVC034 05/M03 A2989 RMK AO2 T00471026
KLCG 132235Z AUTO 33018G25KT 10SM OVC036 05/M02 A2988 RMK AO2 T00501025
KLCG 132215Z AUTO 33015G23KT 10SM OVC038 05/M02 A2988 RMK AO2 T00521022
KLCG 132155Z AUTO 34016G26KT 10SM OVC036 05/M02 A2986 RMK AO2 T00531021
KLCG 132135Z AUTO 34015G27KT 10SM OVC036 06/M02 A2985 RMK AO2 T00551021
KLCG 132115Z AUTO 34022G29KT 10SM OVC036 06/M02 A2984 RMK AO2 T00581019
KLCG 132035Z AUTO 33019G30KT 10SM OVC032 A2983 RMK AO2
KLCG 131955Z AUTO 33025G32KT 10SM BKN032 07/M03 A2981 RMK AO2 T00741027
KLCG 131935Z AUTO 33021G30KT 10SM BKN034 08/M03 A2981 RMK AO2 T00761028
KLCG 131915Z AUTO 33018G27KT 10SM SCT034 08/M03 A2981 RMK AO2 T00751028
KLCG 131855Z AUTO 33018G32KT 10SM SCT034 08/M03 A2981 RMK AO2 T00771028
KLCG 131835Z AUTO 33023G30KT 10SM SCT034 08/M03 A2980 RMK AO2 T00771030
KLCG 131815Z AUTO 33025G33KT 10SM CLR 08/M03 A2981 RMK AO2 T00751029
KLCG 131755Z AUTO 33026G33KT 10SM CLR 08/M03 A2981 RMK AO2 T00761030 10105 20072
KLCG 131735Z AUTO 33019G30KT 10SM CLR 08/M03 A2980 RMK AO2 T00771030
KLCG 131715Z AUTO 33022G32KT 10SM CLR 08/M03 A2980 RMK AO2 T00751030
KLCG 131655Z AUTO 33020G34KT 10SM CLR 08/M03 A2979 RMK AO2 T00751031
KLCG 131635Z AUTO 32023G34KT 10SM CLR 07/M03 A2978 RMK AO2 T00721032
KLCG 131615Z AUTO 33025G37KT 10SM CLR 07/M03 A2977 RMK AO2 T00721035
KLCG 131555Z AUTO 32024G36KT 10SM CLR 08/M03 A2976 RMK AO2 T00751035
KLCG 131535Z AUTO 33025G33KT 10SM CLR 07/M04 A2974 RMK AO2 T00731037
KLCG 131515Z AUTO 32023G35KT 10SM CLR 08/M04 A2974 RMK AO2 T00751037
KLCG 131455Z AUTO 32025G31KT 10SM CLR 08/M04 A2974 RMK AO2 T00751037
KLCG 131435Z AUTO 32025G31KT 10SM CLR 08/M03 A2972 RMK AO2 T00751035
KLCG 131415Z AUTO 32025G32KT 10SM SCT038 08/M03 A2971 RMK AO2 T00771034
KLCG 131355Z AUTO 32021G34KT 10SM OVC038 09/M03 A2971 RMK AO2 T00851032
KLCG 131335Z AUTO 32026G35KT 10SM BKN038 BKN050 OVC075 09/M03 A2969 RMK AO2 T00891035
KLCG 131315Z AUTO 32025G36KT 10SM SCT040 SCT048 BKN075 09/M03 A2968 RMK AO2 T00901034
KLCG 131255Z AUTO 32024G38KT 10SM CLR 09/M04 A2966 RMK AO2 T00901041
KLCG 131235Z AUTO 31022G33KT 10SM CLR 09/M04 A2965 RMK AO2 T00941044
KLCG 131215Z AUTO 32028G33KT 10SM CLR 10/M05 A2963 RMK AO2 T01001050
KLCG 131155Z AUTO 31019G28KT 10SM CLR 11/M05 A2962 RMK AO2 T01061052 10115 20027
KLCG 131135Z AUTO 31018G28KT 10SM BKN110 11/M05 A2962 RMK AO2 T01091054
KLCG 131115Z AUTO 32022G32KT 10SM BKN100 OVC120 11/M06 A2961 RMK AO2 T01141060
KLCG 131055Z AUTO 32020G31KT 10SM BKN090 11/M06 A2961 RMK AO2 T01141065
KLCG 131035Z AUTO 32017G25KT 10SM CLR 11/M07 A2962 RMK AO2 T01091069
KLCG 131015Z AUTO 31017G23KT 10SM CLR 10/M08 A2962 RMK AO2 T01031085
KLCG 130955Z AUTO 31012G16KT 10SM CLR 09/M09 A2963 RMK AO2 T00861090
KLCG 130935Z AUTO 30013G19KT 10SM CLR 08/M09 A2963 RMK AO2 T00841092
KLCG 130915Z AUTO 28014G20KT 10SM CLR 08/M09 A2962 RMK AO2 T00821090
KLCG 130855Z AUTO 28016G22KT 10SM CLR 08/M09 A2962 RMK AO2 T00781087
KLCG 130835Z AUTO 27016G21KT 10SM CLR 08/M09 A2962 RMK AO2 T00771086
KLCG 130815Z AUTO 26014KT 10SM CLR 08/M09 A2962 RMK AO2 T00751086
KLCG 130755Z AUTO 26013KT 10SM CLR 07/M08 A2961 RMK AO2 T00711082
KLCG 130735Z AUTO 28008G15KT 10SM CLR 07/M08 A2963 RMK AO2 T00651083
KLCG 130715Z AUTO 26015G21KT 10SM CLR 06/M08 A2963 RMK AO2 T00611080
KLCG 130655Z AUTO 23010KT 10SM CLR 03/M08 A2964 RMK AO2 T00271077
KLCG 130635Z AUTO 23010KT 10SM CLR 04/M08 A2966 RMK AO2 T00361081
KLCG 130615Z AUTO 23006KT 10SM CLR 04/M08 A2968 RMK AO2 T00361083
KLCG 130555Z AUTO 22010KT 10SM CLR 04/M08 A2969 RMK AO2 T00411083 10046 21005 400781121
KLCG 130535Z AUTO 23011KT 10SM CLR 04/M09 A2970 RMK AO2 T00431086
KLCG 130515Z AUTO 24013KT 10SM CLR 05/M09 A2971 RMK AO2 T00451086
KLCG 130455Z AUTO 23009KT 10SM CLR 05/M09 A2972 RMK AO2 T00451087
KLCG 130435Z AUTO 23009G15KT 10SM CLR 05/M09 A2974 RMK AO2 T00451086
KLCG 130415Z AUTO 24007KT 10SM CLR 04/M08 A2975 RMK AO2 T00391085
KLCG 130355Z AUTO 23009KT 10SM CLR 04/M09 A2976 RMK AO2 T00431086
KLCG 130335Z AUTO 22008KT 10SM CLR 03/M08 A2977 RMK AO2 T00331080
KLCG 130320Z AUTO 22008KT 10SM CLR 04/M08 A2978 RMK AO2 T00371080
KLCG 130255Z AUTO 22007KT 10SM CLR 02/M07 A2979 RMK AO2 T00171071
KLCG 130235Z AUTO 20007KT 10SM CLR 01/M07 A2982 RMK AO2 T00111067
KLCG 130215Z AUTO 20008KT 10SM CLR 01/M06 A2984 RMK AO2 T00091065
KLCG 130155Z AUTO 20007KT 10SM CLR 00/M06 A2986 RMK AO2 T00011061
KLCG 130135Z AUTO 20007KT 10SM CLR 00/M06 A2988 RMK AO2 T10051060
KLCG 130120Z AUTO 20006KT 10SM CLR 00/M06 A2989 RMK AO2 T10041059
KLCG 130055Z AUTO 20006KT 10SM CLR 00/M06 A2990 RMK AO2 T00001059
KLCG 130035Z AUTO 21004KT 10SM CLR 00/M06 A2991 RMK AO2 T00011057
KLCG 130015Z AUTO 21007KT 10SM CLR 01/M05 A2991 RMK AO2 T00121054
KLCG 122355Z AUTO 22008KT 10SM CLR 01/M05 A2991 RMK AO2 T00131050 10078 20003
KLCG 122335Z AUTO 19006KT 10SM CLR 01/M06 A2993 RMK AO2 T00051058
KLCG 122315Z AUTO 19004KT 10SM CLR 01/M06 A2995 RMK AO2 T00141057
KLCG 122255Z AUTO 20003KT 10SM CLR 03/M05 A2996 RMK AO2 T00311054
KLCG 122235Z AUTO 22004KT 10SM CLR 05/M05 A2997 RMK AO2 T00531050
KLCG 122215Z AUTO 23007KT 10SM CLR 07/M05 A2998 RMK AO2 T00701048
KLCG 122155Z AUTO 24008KT 10SM CLR 08/M05 A3000 RMK AO2 T00751048
KLCG 122135Z AUTO 24008KT 10SM CLR 08/M05 A3001 RMK AO2 T00761048
KLCG 122115Z AUTO 25010G14KT 10SM CLR 08/M05 A3002 RMK AO2 T00771047
KLCG 122055Z AUTO 25010G14KT 10SM CLR 08/M05 A3003 RMK AO2 T00771046
KLCG 122035Z AUTO 26011KT 10SM CLR 08/M05 A3005 RMK AO2 T00761047
KLCG 122015Z AUTO 24008KT 10SM CLR 08/M04 A3006 RMK AO2 T00771042
KLCG 121955Z AUTO 23010KT 10SM CLR 07/M04 A3007 RMK AO2 T00691036
KLCG 121935Z AUTO 26009KT 10SM CLR 06/M04 A3009 RMK AO2 T00621038
KLCG 121915Z AUTO 26009KT 10SM CLR 06/M04 A3011 RMK AO2 T00591043
KLCG 121855Z AUTO 27010KT 10SM CLR 06/M04 A3012 RMK AO2 T00621044
KLCG 121835Z AUTO 27007KT 10SM CLR 06/M04 A3014 RMK AO2 T00561037
KLCG 121815Z AUTO 21005KT 10SM SCT034 04/M02 A3017 RMK AO2 T00391018
KLCG 121755Z AUTO 24006KT 10SM BKN034 03/M02 A3019 RMK AO2 T00271021 10027 21121
KLCG 121735Z AUTO 24006KT 10SM OVC034 02/M02 A3020 RMK AO2 T00161024
KLCG 121715Z AUTO 22004KT 10SM OVC034 00/M02 A3021 RMK AO2 T00041022
KLCG 121655Z AUTO 21005KT 10SM OVC034 00/M02 A3022 RMK AO2 T10021020
KLCG 121635Z AUTO 20004KT 10SM OVC032 M01/M02 A3023 RMK AO2 T10121025
KLCG 121615Z AUTO 00000KT 10SM OVC032 M03/M04 A3024 RMK AO2 T10271039
KLCG 121555Z AUTO 00000KT 10SM OVC034 M04/M05 A3024 RMK AO2 T10381050
KLCG 121535Z AUTO 00000KT 10SM OVC036 M04/M06 A3024 RMK AO2 T10451057
KLCG 121515Z AUTO 23003KT 10SM OVC040 M05/M07 A3025 RMK AO2 T10551066
KLCG 121455Z AUTO 00000KT 10SM OVC040 M07/M08 A3027 RMK AO2 T10711083
KLCG 121435Z AUTO 21004KT 10SM OVC040 M09/M10 A3027 RMK AO2 T10861098
KLCG 121415Z AUTO 00000KT 10SM BKN038 M10/M11 A3027 RMK AO2 T11001111